sensor_id;sensor_type;location;lat;lon;timestamp;temperature;humidity
32640;DHT22;19049;52.524;11.468;2023-04-06T00:01:36;-0.10;99.90
32640;DHT22;19049;52.524;11.468;2023-04-06T00:04:02;0.10;99.90
32640;DHT22;19049;52.524;11.468;2023-04-06T00:06:27;-0.40;99.90
32640;DHT22;19049;52.524;11.468;2023-04-06T00:08:54;0.10;99.90
32640;DHT22;19049;52.524;11.468;2023-04-06T00:13:46;0.70;99.90
32640;DHT22;19049;52.524;11.468;2023-04-06T00:18:37;-0.10;99.90
32640;DHT22;19049;52.524;11.468;2023-04-06T00:21:03;-0.40;95.00
32640;DHT22;19049;52.524;11.468;2023-04-06T00:23:29;-0.40;95.00
32640;DHT22;19049;52.524;11.468;2023-04-06T00:28:21;-0.40;94.80
32640;DHT22;19049;52.524;11.468;2023-04-06T00:30:51;0.70;99.90
32640;DHT22;19049;52.524;11.468;2023-04-06T00:33:18;1.00;95.50
32640;DHT22;19049;52.524;11.468;2023-04-06T00:35:44;-0.70;95.00
32640;DHT22;19049;52.524;11.468;2023-04-06T00:38:10;-0.70;95.00
32640;DHT22;19049;52.524;11.468;2023-04-06T00:40:36;0.70;95.50
32640;DHT22;19049;52.524;11.468;2023-04-06T00:43:01;-0.50;95.60
32640;DHT22;19049;52.524;11.468;2023-04-06T00:45:28;-0.70;96.70
32640;DHT22;19049;52.524;11.468;2023-04-06T00:47:53;-0.50;99.90
32640;DHT22;19049;52.524;11.468;2023-04-06T00:50:19;-0.70;95.50
32640;DHT22;19049;52.524;11.468;2023-04-06T00:52:45;-0.70;95.20
32640;DHT22;19049;52.524;11.468;2023-04-06T00:55:11;-0.70;95.20
32640;DHT22;19049;52.524;11.468;2023-04-06T00:57:36;-1.00;99.90
32640;DHT22;19049;52.524;11.468;2023-04-06T01:00:03;-0.60;99.90
32640;DHT22;19049;52.524;11.468;2023-04-06T01:02:29;-0.80;95.20
32640;DHT22;19049;52.524;11.468;2023-04-06T01:04:54;-0.80;95.20
32640;DHT22;19049;52.524;11.468;2023-04-06T01:07:20;-0.50;99.90
32640;DHT22;19049;52.524;11.468;2023-04-06T01:09:46;-1.20;99.90
32640;DHT22;19049;52.524;11.468;2023-04-06T01:19:31;-1.10;99.90
32640;DHT22;19049;52.524;11.468;2023-04-06T01:22:00;-1.00;95.00
32640;DHT22;19049;52.524;11.468;2023-04-06T01:46:20;-1.30;95.20
32640;DHT22;19049;52.524;11.468;2023-04-06T02:05:48;-1.90;95.50
32640;DHT22;19049;52.524;11.468;2023-04-06T02:17:59;-1.20;95.50
32640;DHT22;19049;52.524;11.468;2023-04-06T02:27:43;-1.50;99.90
32640;DHT22;19049;52.524;11.468;2023-04-06T02:35:03;-1.00;99.90
32640;DHT22;19049;52.524;11.468;2023-04-06T03:35:54;-1.90;96.10
32640;DHT22;19049;52.524;11.468;2023-04-06T04:24:35;-1.90;99.90
32640;DHT22;19049;52.524;11.468;2023-04-06T04:41:38;-1.70;99.90
32640;DHT22;19049;52.524;11.468;2023-04-06T05:03:32;-1.70;96.50
32640;DHT22;19049;52.524;11.468;2023-04-06T05:05:58;-1.80;99.90
32640;DHT22;19049;52.524;11.468;2023-04-06T05:08:24;-1.40;99.60
32640;DHT22;19049;52.524;11.468;2023-04-06T05:20:35;-1.30;99.90
32640;DHT22;19049;52.524;11.468;2023-04-06T05:23:01;-1.30;99.90
32640;DHT22;19049;52.524;11.468;2023-04-06T05:25:27;-1.40;99.90
32640;DHT22;19049;52.524;11.468;2023-04-06T05:27:53;-1.30;98.40
32640;DHT22;19049;52.524;11.468;2023-04-06T05:30:19;0.10;99.90
32640;DHT22;19049;52.524;11.468;2023-04-06T05:37:38;-0.90;99.90
32640;DHT22;19049;52.524;11.468;2023-04-06T05:40:05;-1.10;99.90
32640;DHT22;19049;52.524;11.468;2023-04-06T05:42:41;-0.70;97.70
32640;DHT22;19049;52.524;11.468;2023-04-06T05:45:10;-0.30;99.90
32640;DHT22;19049;52.524;11.468;2023-04-06T05:50:07;0.00;99.90
32640;DHT22;19049;52.524;11.468;2023-04-06T05:52:33;-0.30;99.90
32640;DHT22;19049;52.524;11.468;2023-04-06T05:57:25;1.30;99.90
32640;DHT22;19049;52.524;11.468;2023-04-06T05:59:50;0.60;99.90
32640;DHT22;19049;52.524;11.468;2023-04-06T06:02:16;0.50;98.50
32640;DHT22;19049;52.524;11.468;2023-04-06T06:04:42;1.80;99.90
32640;DHT22;19049;52.524;11.468;2023-04-06T06:07:07;1.00;99.00
32640;DHT22;19049;52.524;11.468;2023-04-06T06:09:33;2.20;99.90
32640;DHT22;19049;52.524;11.468;2023-04-06T06:12:00;2.20;99.90
32640;DHT22;19049;52.524;11.468;2023-04-06T06:19:19;4.00;99.90
32640;DHT22;19049;52.524;11.468;2023-04-06T06:24:11;4.60;99.90
32640;DHT22;19049;52.524;11.468;2023-04-06T06:36:23;7.00;99.90
32640;DHT22;19049;52.524;11.468;2023-04-06T06:41:15;7.30;97.20
32640;DHT22;19049;52.524;11.468;2023-04-06T06:58:20;9.70;95.60
32640;DHT22;19049;52.524;11.468;2023-04-06T07:05:38;9.60;99.90
32640;DHT22;19049;52.524;11.468;2023-04-06T07:22:42;12.30;94.50
32640;DHT22;19049;52.524;11.468;2023-04-06T07:39:44;13.50;98.70
32640;DHT22;19049;52.524;11.468;2023-04-06T07:47:02;13.70;96.70
32640;DHT22;19049;52.524;11.468;2023-04-06T07:49:28;13.80;95.50
32640;DHT22;19049;52.524;11.468;2023-04-06T07:59:12;13.20;96.40
32640;DHT22;19049;52.524;11.468;2023-04-06T08:01:38;14.20;95.70
32640;DHT22;19049;52.524;11.468;2023-04-06T08:06:30;14.70;95.80
32640;DHT22;19049;52.524;11.468;2023-04-06T08:08:56;14.10;96.00
32640;DHT22;19049;52.524;11.468;2023-04-06T08:21:06;15.20;93.50
32640;DHT22;19049;52.524;11.468;2023-04-06T08:40:37;15.20;77.30
32640;DHT22;19049;52.524;11.468;2023-04-06T08:43:06;15.30;80.70
32640;DHT22;19049;52.524;11.468;2023-04-06T08:50:29;15.30;76.90
32640;DHT22;19049;52.524;11.468;2023-04-06T08:52:55;15.90;88.20
32640;DHT22;19049;52.524;11.468;2023-04-06T09:02:43;16.10;74.60
32640;DHT22;19049;52.524;11.468;2023-04-06T09:10:04;15.60;84.10
32640;DHT22;19049;52.524;11.468;2023-04-06T09:12:31;15.30;70.10
32640;DHT22;19049;52.524;11.468;2023-04-06T09:14:57;15.30;73.60
32640;DHT22;19049;52.524;11.468;2023-04-06T09:17:25;15.30;74.10
32640;DHT22;19049;52.524;11.468;2023-04-06T09:24:48;15.40;68.40
32640;DHT22;19049;52.524;11.468;2023-04-06T09:29:41;15.20;66.00
32640;DHT22;19049;52.524;11.468;2023-04-06T09:32:08;15.20;67.80
32640;DHT22;19049;52.524;11.468;2023-04-06T09:34:37;15.20;69.40
32640;DHT22;19049;52.524;11.468;2023-04-06T09:37:16;15.10;67.70
32640;DHT22;19049;52.524;11.468;2023-04-06T09:47:06;15.40;69.70
32640;DHT22;19049;52.524;11.468;2023-04-06T09:49:33;15.40;69.00
32640;DHT22;19049;52.524;11.468;2023-04-06T09:52:03;15.50;67.30
32640;DHT22;19049;52.524;11.468;2023-04-06T09:54:30;15.50;68.80
32640;DHT22;19049;52.524;11.468;2023-04-06T09:57:19;15.60;69.90
32640;DHT22;19049;52.524;11.468;2023-04-06T10:00:03;15.60;71.50
32640;DHT22;19049;52.524;11.468;2023-04-06T10:03:08;15.50;63.90
32640;DHT22;19049;52.524;11.468;2023-04-06T10:05:43;15.40;61.50
32640;DHT22;19049;52.524;11.468;2023-04-06T10:08:12;15.30;63.10
32640;DHT22;19049;52.524;11.468;2023-04-06T10:10:39;15.20;65.90
32640;DHT22;19049;52.524;11.468;2023-04-06T10:15:31;15.00;81.70
32640;DHT22;19049;52.524;11.468;2023-04-06T10:17:58;15.10;66.70
32640;DHT22;19049;52.524;11.468;2023-04-06T10:20:51;15.10;67.00
32640;DHT22;19049;52.524;11.468;2023-04-06T10:23:35;15.20;64.60
32640;DHT22;19049;52.524;11.468;2023-04-06T10:28:35;15.20;59.70
32640;DHT22;19049;52.524;11.468;2023-04-06T10:31:05;15.20;62.00
32640;DHT22;19049;52.524;11.468;2023-04-06T10:33:31;15.20;73.80
32640;DHT22;19049;52.524;11.468;2023-04-06T10:35:56;15.70;70.70
32640;DHT22;19049;52.524;11.468;2023-04-06T10:38:37;15.10;64.80
32640;DHT22;19049;52.524;11.468;2023-04-06T10:41:07;15.40;61.10
32640;DHT22;19049;52.524;11.468;2023-04-06T10:43:35;15.90;75.00
32640;DHT22;19049;52.524;11.468;2023-04-06T10:46:02;15.50;64.50
32640;DHT22;19049;52.524;11.468;2023-04-06T10:48:42;15.50;79.50
32640;DHT22;19049;52.524;11.468;2023-04-06T10:51:12;15.60;62.00
32640;DHT22;19049;52.524;11.468;2023-04-06T10:53:41;15.60;62.60
32640;DHT22;19049;52.524;11.468;2023-04-06T10:56:10;15.70;62.20
32640;DHT22;19049;52.524;11.468;2023-04-06T10:58:47;15.60;79.20
32640;DHT22;19049;52.524;11.468;2023-04-06T11:01:17;15.80;60.10
32640;DHT22;19049;52.524;11.468;2023-04-06T11:03:48;15.80;60.30
32640;DHT22;19049;52.524;11.468;2023-04-06T11:06:30;15.90;63.90
32640;DHT22;19049;52.524;11.468;2023-04-06T11:11:26;16.10;63.40
32640;DHT22;19049;52.524;11.468;2023-04-06T11:13:57;16.30;64.80
32640;DHT22;19049;52.524;11.468;2023-04-06T11:16:30;16.40;58.30
32640;DHT22;19049;52.524;11.468;2023-04-06T11:19:00;16.40;62.10
32640;DHT22;19049;52.524;11.468;2023-04-06T11:21:47;16.40;62.60
32640;DHT22;19049;52.524;11.468;2023-04-06T11:24:21;16.30;56.30
32640;DHT22;19049;52.524;11.468;2023-04-06T11:26:56;16.40;64.00
32640;DHT22;19049;52.524;11.468;2023-04-06T11:29:27;16.60;67.50
32640;DHT22;19049;52.524;11.468;2023-04-06T11:31:57;17.00;68.40
32640;DHT22;19049;52.524;11.468;2023-04-06T11:34:24;16.80;64.00
32640;DHT22;19049;52.524;11.468;2023-04-06T11:37:06;16.90;62.30
32640;DHT22;19049;52.524;11.468;2023-04-06T11:39:42;17.00;63.00
32640;DHT22;19049;52.524;11.468;2023-04-06T11:44:36;17.60;76.00
32640;DHT22;19049;52.524;11.468;2023-04-06T11:47:06;17.50;79.20
32640;DHT22;19049;52.524;11.468;2023-04-06T11:49:33;18.20;79.40
32640;DHT22;19049;52.524;11.468;2023-04-06T11:54:35;17.00;78.10
32640;DHT22;19049;52.524;11.468;2023-04-06T11:57:04;17.50;62.20
32640;DHT22;19049;52.524;11.468;2023-04-06T11:59:34;17.00;81.80
32640;DHT22;19049;52.524;11.468;2023-04-06T12:02:01;17.50;61.40
32640;DHT22;19049;52.524;11.468;2023-04-06T12:04:27;17.60;58.50
32640;DHT22;19049;52.524;11.468;2023-04-06T12:06:52;17.60;62.50
32640;DHT22;19049;52.524;11.468;2023-04-06T12:09:21;17.60;65.70
32640;DHT22;19049;52.524;11.468;2023-04-06T12:11:47;17.70;63.20
32640;DHT22;19049;52.524;11.468;2023-04-06T12:14:13;17.80;63.60
32640;DHT22;19049;52.524;11.468;2023-04-06T12:16:39;17.80;61.10
32640;DHT22;19049;52.524;11.468;2023-04-06T12:19:05;17.80;63.90
32640;DHT22;19049;52.524;11.468;2023-04-06T12:21:31;17.80;61.30
32640;DHT22;19049;52.524;11.468;2023-04-06T12:23:58;17.80;58.50
32640;DHT22;19049;52.524;11.468;2023-04-06T12:26:24;17.80;59.90
32640;DHT22;19049;52.524;11.468;2023-04-06T12:28:50;17.80;61.50
32640;DHT22;19049;52.524;11.468;2023-04-06T12:31:17;17.90;59.30
32640;DHT22;19049;52.524;11.468;2023-04-06T12:33:46;18.00;63.80
32640;DHT22;19049;52.524;11.468;2023-04-06T12:36:16;18.00;60.40
32640;DHT22;19049;52.524;11.468;2023-04-06T12:38:44;18.00;55.80
32640;DHT22;19049;52.524;11.468;2023-04-06T12:41:11;18.00;59.10
32640;DHT22;19049;52.524;11.468;2023-04-06T12:43:37;18.10;60.10
32640;DHT22;19049;52.524;11.468;2023-04-06T12:46:03;18.20;57.60
32640;DHT22;19049;52.524;11.468;2023-04-06T12:48:28;18.30;57.30
32640;DHT22;19049;52.524;11.468;2023-04-06T12:50:57;18.30;56.80
32640;DHT22;19049;52.524;11.468;2023-04-06T12:53:23;18.40;57.00
32640;DHT22;19049;52.524;11.468;2023-04-06T12:55:48;18.50;57.20
32640;DHT22;19049;52.524;11.468;2023-04-06T12:58:14;18.50;57.50
32640;DHT22;19049;52.524;11.468;2023-04-06T13:00:40;18.60;59.00
32640;DHT22;19049;52.524;11.468;2023-04-06T13:03:06;18.50;58.30
32640;DHT22;19049;52.524;11.468;2023-04-06T13:05:32;18.60;52.70
32640;DHT22;19049;52.524;11.468;2023-04-06T13:07:58;18.70;55.50
32640;DHT22;19049;52.524;11.468;2023-04-06T13:10:23;18.80;56.10
32640;DHT22;19049;52.524;11.468;2023-04-06T13:12:49;18.90;55.40
32640;DHT22;19049;52.524;11.468;2023-04-06T13:15:14;19.00;54.30
32640;DHT22;19049;52.524;11.468;2023-04-06T13:17:40;19.00;55.20
32640;DHT22;19049;52.524;11.468;2023-04-06T13:20:06;19.10;53.90
32640;DHT22;19049;52.524;11.468;2023-04-06T13:29:50;19.30;53.80
32640;DHT22;19049;52.524;11.468;2023-04-06T13:32:16;20.00;58.70
32640;DHT22;19049;52.524;11.468;2023-04-06T13:37:12;19.10;60.50
32640;DHT22;19049;52.524;11.468;2023-04-06T13:46:56;20.50;48.20
32640;DHT22;19049;52.524;11.468;2023-04-06T13:56:40;21.10;60.60
32640;DHT22;19049;52.524;11.468;2023-04-06T14:11:17;21.20;45.60
32640;DHT22;19049;52.524;11.468;2023-04-06T14:13:42;21.40;48.60
32640;DHT22;19049;52.524;11.468;2023-04-06T14:16:08;21.50;45.60
32640;DHT22;19049;52.524;11.468;2023-04-06T14:18:36;21.30;60.10
32640;DHT22;19049;52.524;11.468;2023-04-06T14:21:02;21.60;47.90
32640;DHT22;19049;52.524;11.468;2023-04-06T14:23:28;21.60;47.20
32640;DHT22;19049;52.524;11.468;2023-04-06T14:26:07;21.80;58.00
32640;DHT22;19049;52.524;11.468;2023-04-06T14:28:36;21.90;56.30
32640;DHT22;19049;52.524;11.468;2023-04-06T14:31:09;21.40;46.90
32640;DHT22;19049;52.524;11.468;2023-04-06T14:33:35;21.30;46.40
32640;DHT22;19049;52.524;11.468;2023-04-06T14:36:03;21.30;44.10
32640;DHT22;19049;52.524;11.468;2023-04-06T14:38:29;21.20;46.10
32640;DHT22;19049;52.524;11.468;2023-04-06T14:40:55;21.20;45.70
32640;DHT22;19049;52.524;11.468;2023-04-06T14:43:21;21.20;47.10
32640;DHT22;19049;52.524;11.468;2023-04-06T14:45:49;21.30;45.30
32640;DHT22;19049;52.524;11.468;2023-04-06T14:48:15;21.40;46.20
32640;DHT22;19049;52.524;11.468;2023-04-06T14:50:52;21.30;45.60
32640;DHT22;19049;52.524;11.468;2023-04-06T14:53:18;21.40;42.80
32640;DHT22;19049;52.524;11.468;2023-04-06T14:55:44;21.30;45.50
32640;DHT22;19049;52.524;11.468;2023-04-06T14:58:10;21.30;47.20
32640;DHT22;19049;52.524;11.468;2023-04-06T15:00:38;21.30;45.20
32640;DHT22;19049;52.524;11.468;2023-04-06T15:03:04;21.30;45.60
32640;DHT22;19049;52.524;11.468;2023-04-06T15:05:30;22.10;60.80
32640;DHT22;19049;52.524;11.468;2023-04-06T15:07:56;21.40;47.60
32640;DHT22;19049;52.524;11.468;2023-04-06T15:10:22;21.40;45.40
32640;DHT22;19049;52.524;11.468;2023-04-06T15:12:47;21.40;46.90
32640;DHT22;19049;52.524;11.468;2023-04-06T15:15:13;21.40;45.50
32640;DHT22;19049;52.524;11.468;2023-04-06T15:17:38;21.20;57.10
32640;DHT22;19049;52.524;11.468;2023-04-06T15:20:05;21.30;45.30
32640;DHT22;19049;52.524;11.468;2023-04-06T15:22:31;20.80;58.20
32640;DHT22;19049;52.524;11.468;2023-04-06T15:24:56;21.20;45.70
32640;DHT22;19049;52.524;11.468;2023-04-06T15:27:22;21.20;46.80
32640;DHT22;19049;52.524;11.468;2023-04-06T15:29:48;21.40;61.40
32640;DHT22;19049;52.524;11.468;2023-04-06T15:32:13;21.00;45.10
32640;DHT22;19049;52.524;11.468;2023-04-06T15:34:39;21.00;47.10
32640;DHT22;19049;52.524;11.468;2023-04-06T15:37:05;21.00;47.30
32640;DHT22;19049;52.524;11.468;2023-04-06T15:39:31;20.90;46.10
32640;DHT22;19049;52.524;11.468;2023-04-06T15:41:57;20.80;47.30
32640;DHT22;19049;52.524;11.468;2023-04-06T15:44:23;20.80;46.70
32640;DHT22;19049;52.524;11.468;2023-04-06T15:46:51;20.70;47.50
32640;DHT22;19049;52.524;11.468;2023-04-06T15:49:18;20.50;45.50
32640;DHT22;19049;52.524;11.468;2023-04-06T15:51:46;20.60;46.80
32640;DHT22;19049;52.524;11.468;2023-04-06T15:54:13;20.40;47.40
32640;DHT22;19049;52.524;11.468;2023-04-06T15:56:38;20.40;48.50
32640;DHT22;19049;52.524;11.468;2023-04-06T15:59:04;20.30;48.00
32640;DHT22;19049;52.524;11.468;2023-04-06T16:01:30;20.30;46.60
32640;DHT22;19049;52.524;11.468;2023-04-06T16:03:55;20.20;46.80
32640;DHT22;19049;52.524;11.468;2023-04-06T16:08:47;20.30;57.50
32640;DHT22;19049;52.524;11.468;2023-04-06T16:13:39;19.70;52.50
32640;DHT22;19049;52.524;11.468;2023-04-06T16:16:05;19.00;47.80
32640;DHT22;19049;52.524;11.468;2023-04-06T16:20:57;18.60;67.40
32640;DHT22;19049;52.524;11.468;2023-04-06T16:23:22;19.40;57.80
32640;DHT22;19049;52.524;11.468;2023-04-06T16:25:48;18.40;58.30
32640;DHT22;19049;52.524;11.468;2023-04-06T16:33:08;18.70;58.80
32640;DHT22;19049;52.524;11.468;2023-04-06T16:35:33;18.50;58.60
32640;DHT22;19049;52.524;11.468;2023-04-06T16:37:59;17.90;46.70
32640;DHT22;19049;52.524;11.468;2023-04-06T16:42:51;17.90;49.20
32640;DHT22;19049;52.524;11.468;2023-04-06T16:47:43;17.00;46.40
32640;DHT22;19049;52.524;11.468;2023-04-06T16:50:09;16.80;47.80
32640;DHT22;19049;52.524;11.468;2023-04-06T16:52:37;16.50;53.00
32640;DHT22;19049;52.524;11.468;2023-04-06T16:55:04;16.20;46.70
32640;DHT22;19049;52.524;11.468;2023-04-06T16:57:30;16.20;47.10
32640;DHT22;19049;52.524;11.468;2023-04-06T16:59:55;15.70;50.60
32640;DHT22;19049;52.524;11.468;2023-04-06T17:02:22;15.70;48.30
32640;DHT22;19049;52.524;11.468;2023-04-06T17:04:48;15.00;50.40
32640;DHT22;19049;52.524;11.468;2023-04-06T17:07:14;16.10;53.00
32640;DHT22;19049;52.524;11.468;2023-04-06T17:12:07;15.00;49.00
32640;DHT22;19049;52.524;11.468;2023-04-06T17:16:59;15.00;60.00
32640;DHT22;19049;52.524;11.468;2023-04-06T17:19:25;13.90;62.30
32640;DHT22;19049;52.524;11.468;2023-04-06T17:21:51;14.20;48.90
32640;DHT22;19049;52.524;11.468;2023-04-06T17:24:17;13.50;50.70
32640;DHT22;19049;52.524;11.468;2023-04-06T17:26:43;13.10;59.70
32640;DHT22;19049;52.524;11.468;2023-04-06T17:29:09;14.40;59.60
32640;DHT22;19049;52.524;11.468;2023-04-06T17:31:34;13.30;67.30
32640;DHT22;19049;52.524;11.468;2023-04-06T17:36:26;12.80;73.30
32640;DHT22;19049;52.524;11.468;2023-04-06T17:38:53;12.90;51.70
32640;DHT22;19049;52.524;11.468;2023-04-06T17:41:19;12.50;51.80
32640;DHT22;19049;52.524;11.468;2023-04-06T17:46:11;12.20;64.10
32640;DHT22;19049;52.524;11.468;2023-04-06T17:48:36;11.50;66.80
32640;DHT22;19049;52.524;11.468;2023-04-06T17:51:02;12.20;69.00
32640;DHT22;19049;52.524;11.468;2023-04-06T17:53:28;11.80;53.60
32640;DHT22;19049;52.524;11.468;2023-04-06T17:56:02;11.40;53.50
32640;DHT22;19049;52.524;11.468;2023-04-06T18:00:56;11.00;59.40
32640;DHT22;19049;52.524;11.468;2023-04-06T18:05:50;10.80;54.60
32640;DHT22;19049;52.524;11.468;2023-04-06T18:08:16;10.70;71.80
32640;DHT22;19049;52.524;11.468;2023-04-06T18:10:42;10.20;68.00
32640;DHT22;19049;52.524;11.468;2023-04-06T18:13:10;10.20;71.10
32640;DHT22;19049;52.524;11.468;2023-04-06T18:18:03;9.80;72.20
32640;DHT22;19049;52.524;11.468;2023-04-06T18:20:29;10.70;67.80
32640;DHT22;19049;52.524;11.468;2023-04-06T18:22:55;9.40;73.20
32640;DHT22;19049;52.524;11.468;2023-04-06T18:25:20;9.60;64.40
32640;DHT22;19049;52.524;11.468;2023-04-06T18:27:47;10.00;72.50
32640;DHT22;19049;52.524;11.468;2023-04-06T18:30:13;10.00;76.80
32640;DHT22;19049;52.524;11.468;2023-04-06T18:32:41;9.60;57.40
32640;DHT22;19049;52.524;11.468;2023-04-06T18:35:07;9.50;57.60
32640;DHT22;19049;52.524;11.468;2023-04-06T18:37:33;9.00;81.10
32640;DHT22;19049;52.524;11.468;2023-04-06T18:39:59;9.30;57.70
32640;DHT22;19049;52.524;11.468;2023-04-06T18:42:25;8.30;78.30
32640;DHT22;19049;52.524;11.468;2023-04-06T18:44:50;8.80;79.20
32640;DHT22;19049;52.524;11.468;2023-04-06T18:47:16;9.30;58.40
32640;DHT22;19049;52.524;11.468;2023-04-06T18:49:41;9.00;58.60
32640;DHT22;19049;52.524;11.468;2023-04-06T18:52:07;9.10;58.90
32640;DHT22;19049;52.524;11.468;2023-04-06T19:04:20;8.00;76.20
32640;DHT22;19049;52.524;11.468;2023-04-06T19:06:46;8.20;68.40
32640;DHT22;19049;52.524;11.468;2023-04-06T19:14:04;8.00;59.20
32640;DHT22;19049;52.524;11.468;2023-04-06T19:21:25;7.80;59.60
32640;DHT22;19049;52.524;11.468;2023-04-06T19:23:52;7.70;59.70
32640;DHT22;19049;52.524;11.468;2023-04-06T19:26:22;7.60;59.80
32640;DHT22;19049;52.524;11.468;2023-04-06T19:31:16;7.30;60.20
32640;DHT22;19049;52.524;11.468;2023-04-06T19:33:43;7.40;60.80
32640;DHT22;19049;52.524;11.468;2023-04-06T19:36:09;6.90;83.80
32640;DHT22;19049;52.524;11.468;2023-04-06T19:38:35;7.10;76.50
32640;DHT22;19049;52.524;11.468;2023-04-06T19:53:13;6.60;80.90
32640;DHT22;19049;52.524;11.468;2023-04-06T19:55:40;6.00;81.00
32640;DHT22;19049;52.524;11.468;2023-04-06T20:00:31;6.00;81.90
32640;DHT22;19049;52.524;11.468;2023-04-06T20:07:50;7.00;82.20
32640;DHT22;19049;52.524;11.468;2023-04-06T20:10:16;5.80;63.10
32640;DHT22;19049;52.524;11.468;2023-04-06T20:12:42;5.70;63.40
32640;DHT22;19049;52.524;11.468;2023-04-06T20:24:52;6.30;83.80
32640;DHT22;19049;52.524;11.468;2023-04-06T20:29:45;5.80;71.20
32640;DHT22;19049;52.524;11.468;2023-04-06T20:32:13;5.70;83.60
32640;DHT22;19049;52.524;11.468;2023-04-06T20:44:30;5.20;74.70
32640;DHT22;19049;52.524;11.468;2023-04-06T20:51:49;5.50;65.70
32640;DHT22;19049;52.524;11.468;2023-04-06T20:59:08;5.30;68.10
32640;DHT22;19049;52.524;11.468;2023-04-06T21:01:34;5.70;72.20
32640;DHT22;19049;52.524;11.468;2023-04-06T21:06:28;5.50;77.80
32640;DHT22;19049;52.524;11.468;2023-04-06T21:08:54;4.40;67.60
32640;DHT22;19049;52.524;11.468;2023-04-06T21:11:19;6.10;76.30
32640;DHT22;19049;52.524;11.468;2023-04-06T21:13:46;5.70;66.90
32640;DHT22;19049;52.524;11.468;2023-04-06T21:16:11;5.80;85.50
32640;DHT22;19049;52.524;11.468;2023-04-06T21:18:38;5.80;85.90
32640;DHT22;19049;52.524;11.468;2023-04-06T21:21:04;6.30;86.00
32640;DHT22;19049;52.524;11.468;2023-04-06T21:25:56;6.90;72.60
32640;DHT22;19049;52.524;11.468;2023-04-06T21:28:23;5.60;70.80
32640;DHT22;19049;52.524;11.468;2023-04-06T21:30:49;6.20;86.00
32640;DHT22;19049;52.524;11.468;2023-04-06T21:38:08;5.40;79.50
32640;DHT22;19049;52.524;11.468;2023-04-06T21:40:33;5.40;70.20
32640;DHT22;19049;52.524;11.468;2023-04-06T21:45:25;5.50;86.00
32640;DHT22;19049;52.524;11.468;2023-04-06T21:47:52;5.30;69.90
32640;DHT22;19049;52.524;11.468;2023-04-06T21:52:43;6.00;79.00
32640;DHT22;19049;52.524;11.468;2023-04-06T21:55:10;5.50;86.20
32640;DHT22;19049;52.524;11.468;2023-04-06T22:00:03;5.50;68.10
32640;DHT22;19049;52.524;11.468;2023-04-06T22:02:37;5.70;87.30
32640;DHT22;19049;52.524;11.468;2023-04-06T22:05:05;6.60;79.30
32640;DHT22;19049;52.524;11.468;2023-04-06T22:12:25;4.80;87.00
32640;DHT22;19049;52.524;11.468;2023-04-06T22:22:09;5.00;87.70
32640;DHT22;19049;52.524;11.468;2023-04-06T22:27:00;6.20;83.40
32640;DHT22;19049;52.524;11.468;2023-04-06T22:29:26;5.10;88.40
32640;DHT22;19049;52.524;11.468;2023-04-06T22:31:52;5.40;88.80
32640;DHT22;19049;52.524;11.468;2023-04-06T22:34:17;5.40;88.90
32640;DHT22;19049;52.524;11.468;2023-04-06T22:36:43;5.30;88.90
32640;DHT22;19049;52.524;11.468;2023-04-06T22:41:34;5.80;76.70
32640;DHT22;19049;52.524;11.468;2023-04-06T22:46:26;4.90;79.30
32640;DHT22;19049;52.524;11.468;2023-04-06T22:51:18;5.20;75.00
32640;DHT22;19049;52.524;11.468;2023-04-06T23:01:04;6.20;79.50
32640;DHT22;19049;52.524;11.468;2023-04-06T23:05:56;5.20;79.70
32640;DHT22;19049;52.524;11.468;2023-04-06T23:10:49;4.90;70.70
32640;DHT22;19049;52.524;11.468;2023-04-06T23:13:15;4.50;89.40
32640;DHT22;19049;52.524;11.468;2023-04-06T23:15:41;5.00;90.20
32640;DHT22;19049;52.524;11.468;2023-04-06T23:18:06;5.30;90.20
32640;DHT22;19049;52.524;11.468;2023-04-06T23:25:24;4.50;73.80
32640;DHT22;19049;52.524;11.468;2023-04-06T23:27:50;5.70;90.60
32640;DHT22;19049;52.524;11.468;2023-04-06T23:35:08;5.20;85.10
32640;DHT22;19049;52.524;11.468;2023-04-06T23:40:00;4.70;86.90
32640;DHT22;19049;52.524;11.468;2023-04-06T23:49:44;4.30;80.20
32640;DHT22;19049;52.524;11.468;2023-04-06T23:54:35;4.80;91.20
32640;DHT22;19049;52.524;11.468;2023-04-06T23:59:27;4.60;79.20
